North Las Vegas, Nevada
Current Conditions -  °F | °C
As of 9:58 PM on Saturday 25 Oct 2014 (Local Time) from KLSV Reporting Station
Clear Clear  
Wind Chill: 75°   Ceiling: Unl
Heat Index: 75°   Visibility: 10mi
Dew Point: 43°   Wind: 13mph
Humidity: 32%   Direction: 200°SSW
Pressure: 29.91"   Gusts: NA
Location:  36.2°N, 115.11°W
Report Text: KLSV 260458Z AUTO 20011KT 10SM CLR 24/06 A2991 RMK AO2 SLP110 T02370059 $
Loading
Personal Weather Stations






























Interactive Weather Map
Tropical Storm Tracking
New forecast layout! Learn more

10-Day Weather Forecast

Advertisements
Track Severe Weather on mobile